Time;durP1;ratioP1;P1;durP2;ratioP2;P2;SDS_P1;SDS_P2;PMS_P1;PMS_P2;Temp;Humidity;BMP_temperature;BMP_pressure;BME280_temperature;BME280_humidity;BME280_pressure;Samples;Min_cycle;Max_cycle;Signal;HPM_P1;HPM_P2
2023/03/08 00:00:58;;;;;;;14.45;9.05;;;;;;;;;;5107821;28;20059;-46
2023/03/08 00:03:24;;;;;;;14.75;8.25;;;;;;;;;;5109132;28;20023;-46
2023/03/08 00:05:50;;;;;;;12.88;8.25;;;;;;;;;;5108063;28;20066;-45
2023/03/08 00:08:17;;;;;;;15.05;8.70;;;;;;;;;;5109381;28;20529;-45
2023/03/08 00:10:43;;;;;;;14.23;8.45;;;;;;;;;;5109356;28;20024;-45
2023/03/08 00:13:09;;;;;;;11.30;7.55;;;;;;;;;;5108535;28;20031;-45
2023/03/08 00:15:38;;;;;;;14.27;8.27;;;;;;;;;;5108799;28;20530;-45
2023/03/08 00:18:04;;;;;;;11.27;7.05;;;;;;;;;;5108782;28;20092;-44
2023/03/08 00:20:30;;;;;;;11.63;7.63;;;;;;;;;;5108469;28;20038;-45
2023/03/08 00:22:56;;;;;;;11.38;7.38;;;;;;;;;;5108600;28;20023;-45
2023/03/08 00:25:22;;;;;;;14.57;8.52;;;;;;;;;;5108861;28;20020;-45
2023/03/08 00:27:48;;;;;;;14.55;8.73;;;;;;;;;;5107987;28;20081;-45
2023/03/08 00:30:15;;;;;;;15.20;9.50;;;;;;;;;;5109239;28;20024;-45
2023/03/08 00:32:41;;;;;;;14.13;8.93;;;;;;;;;;5108235;28;20126;-44
2023/03/08 00:35:07;;;;;;;16.98;9.63;;;;;;;;;;5108214;28;20073;-45
2023/03/08 00:37:33;;;;;;;15.00;9.25;;;;;;;;;;5108510;28;20210;-45
2023/03/08 00:39:59;;;;;;;15.48;9.52;;;;;;;;;;5108307;28;20031;-47
2023/03/08 00:42:25;;;;;;;15.30;8.73;;;;;;;;;;5108051;28;20115;-44
2023/03/08 00:44:51;;;;;;;16.13;9.85;;;;;;;;;;5108565;28;20604;-45
2023/03/08 00:47:17;;;;;;;16.05;9.25;;;;;;;;;;5108302;28;20031;-45
2023/03/08 00:49:44;;;;;;;14.60;9.10;;;;;;;;;;5108356;28;20429;-44
2023/03/08 00:52:10;;;;;;;15.55;9.13;;;;;;;;;;5107817;28;20524;-45
2023/03/08 00:54:37;;;;;;;13.27;8.30;;;;;;;;;;5108110;28;20027;-45
2023/03/08 00:57:04;;;;;;;13.73;8.25;;;;;;;;;;5107616;28;20102;-45
2023/03/08 00:59:30;;;;;;;14.32;8.15;;;;;;;;;;5107686;28;20452;-44
2023/03/08 01:01:56;;;;;;;13.77;8.32;;;;;;;;;;5107766;28;20024;-45
2023/03/08 01:04:23;;;;;;;13.38;8.65;;;;;;;;;;5107115;28;20031;-45
2023/03/08 06:11:19;;;;;;;3.50;2.20;;;;;;;;;;5116808;27;20054;-44
2023/03/08 06:13:45;;;;;;;4.00;1.88;;;;;;;;;;5129148;27;20035;-47
2023/03/08 06:16:11;;;;;;;2.90;2.45;;;;;;;;;;5130003;27;20564;-46
2023/03/08 06:18:38;;;;;;;3.28;2.60;;;;;;;;;;5130449;27;20023;-45
2023/03/08 06:21:09;;;;;;;2.83;2.25;;;;;;;;;;5092182;28;20031;-44
2023/03/08 06:23:35;;;;;;;3.47;2.22;;;;;;;;;;5109599;28;20023;-47
2023/03/08 06:26:02;;;;;;;2.65;1.95;;;;;;;;;;5109267;28;20034;-46
2023/03/08 06:28:28;;;;;;;3.63;2.20;;;;;;;;;;5109570;28;20073;-44
2023/03/08 06:30:54;;;;;;;3.83;2.35;;;;;;;;;;5108755;28;20100;-45
2023/03/08 06:33:25;;;;;;;3.42;2.20;;;;;;;;;;5099171;28;20062;-45
2023/03/08 06:35:55;;;;;;;3.42;2.28;;;;;;;;;;5105654;28;20030;-46
2023/03/08 06:38:21;;;;;;;2.65;2.17;;;;;;;;;;5108610;28;20026;-44
2023/03/08 06:40:47;;;;;;;2.47;2.03;;;;;;;;;;5120574;27;20086;-45
2023/03/08 06:43:13;;;;;;;3.03;2.03;;;;;;;;;;5113737;27;20031;-44
2023/03/08 06:45:39;;;;;;;3.90;2.22;;;;;;;;;;5122235;27;20038;-45
2023/03/08 06:48:06;;;;;;;3.40;2.22;;;;;;;;;;5111400;28;20023;-44
2023/03/08 06:50:32;;;;;;;2.72;2.15;;;;;;;;;;5118855;27;20717;-45
2023/03/08 06:52:58;;;;;;;2.22;1.60;;;;;;;;;;5102315;28;20111;-44
2023/03/08 06:55:24;;;;;;;2.45;1.75;;;;;;;;;;5088552;28;20042;-45
2023/03/08 06:57:50;;;;;;;1.98;1.35;;;;;;;;;;5088560;28;20608;-45
2023/03/08 07:00:17;;;;;;;2.00;1.50;;;;;;;;;;5088562;28;20082;-45
2023/03/08 07:02:43;;;;;;;2.40;1.63;;;;;;;;;;5088471;28;20053;-44
2023/03/08 07:05:09;;;;;;;4.03;2.08;;;;;;;;;;5088811;28;20411;-45
2023/03/08 07:07:36;;;;;;;3.35;2.15;;;;;;;;;;5101095;28;20032;-45
2023/03/08 07:10:03;;;;;;;3.67;2.10;;;;;;;;;;5108876;28;20019;-45
2023/03/08 07:12:31;;;;;;;2.50;1.90;;;;;;;;;;5108473;28;20031;-45
2023/03/08 07:14:57;;;;;;;2.58;1.77;;;;;;;;;;5105358;28;20017;-45
2023/03/08 07:17:23;;;;;;;2.85;1.90;;;;;;;;;;5108636;28;20019;-47
2023/03/08 07:19:49;;;;;;;2.88;2.00;;;;;;;;;;5089930;28;20111;-44
2023/03/08 07:22:16;;;;;;;2.65;1.80;;;;;;;;;;5086742;28;20428;-46
2023/03/08 07:24:42;;;;;;;2.08;1.67;;;;;;;;;;5089351;28;20063;-45
2023/03/08 07:27:08;;;;;;;2.38;1.77;;;;;;;;;;5088668;28;20035;-45
2023/03/08 07:29:34;;;;;;;2.33;1.80;;;;;;;;;;5093956;28;20547;-46
2023/03/08 07:32:00;;;;;;;2.05;1.67;;;;;;;;;;5122138;28;20023;-46
2023/03/08 07:34:26;;;;;;;1.90;1.40;;;;;;;;;;5129224;27;20106;-45
2023/03/08 07:36:52;;;;;;;2.33;1.52;;;;;;;;;;5092280;28;20043;-47
2023/03/08 07:39:18;;;;;;;1.90;1.50;;;;;;;;;;5091467;28;20069;-46
2023/03/08 07:41:44;;;;;;;1.45;1.30;;;;;;;;;;5097282;28;20570;-45
2023/03/08 07:44:10;;;;;;;2.05;1.50;;;;;;;;;;5120908;28;20039;-45
2023/03/08 07:46:36;;;;;;;2.78;2.03;;;;;;;;;;5093240;28;20510;-46
2023/03/08 07:49:02;;;;;;;2.53;1.90;;;;;;;;;;5102446;28;20026;-44
2023/03/08 07:51:28;;;;;;;2.83;1.90;;;;;;;;;;5094162;28;20407;-45
2023/03/08 07:53:54;;;;;;;2.13;1.73;;;;;;;;;;5087505;28;20107;-45
2023/03/08 07:56:20;;;;;;;2.97;2.10;;;;;;;;;;5087662;28;20042;-45
2023/03/08 07:58:46;;;;;;;2.53;2.00;;;;;;;;;;5094923;28;20411;-46
2023/03/08 08:01:13;;;;;;;2.95;2.03;;;;;;;;;;5128618;28;20031;-44
2023/03/08 08:03:39;;;;;;;2.03;1.80;;;;;;;;;;5119963;28;20035;-44
2023/03/08 08:06:06;;;;;;;2.90;1.70;;;;;;;;;;5108257;28;20031;-44
2023/03/08 08:08:32;;;;;;;2.78;1.70;;;;;;;;;;5108201;28;20036;-47
2023/03/08 08:10:58;;;;;;;1.60;1.50;;;;;;;;;;5110950;28;20375;-44
2023/03/08 08:13:24;;;;;;;3.78;2.10;;;;;;;;;;5111798;28;20101;-45
2023/03/08 08:16:00;;;;;;;2.38;1.60;;;;;;;;;;5106482;28;20508;-45
2023/03/08 08:18:27;;;;;;;2.17;1.63;;;;;;;;;;5111031;28;20394;-45
2023/03/08 08:21:04;;;;;;;1.38;1.27;;;;;;;;;;5109990;28;20027;-44
2023/03/08 08:23:30;;;;;;;2.10;1.67;;;;;;;;;;5107977;28;20438;-44
2023/03/08 08:25:56;;;;;;;2.22;1.77;;;;;;;;;;5110108;28;20102;-45
2023/03/08 08:28:22;;;;;;;2.42;2.20;;;;;;;;;;5110371;28;20509;-44
2023/03/08 08:31:05;;;;;;;2.97;2.05;;;;;;;;;;5108438;28;20038;-44
2023/03/08 08:33:32;;;;;;;3.78;2.35;;;;;;;;;;5110633;28;20115;-45
2023/03/08 08:35:58;;;;;;;4.07;2.40;;;;;;;;;;5109270;28;20512;-47
2023/03/08 08:38:24;;;;;;;3.78;2.38;;;;;;;;;;5111139;28;20024;-46
2023/03/08 08:40:50;;;;;;;2.95;2.17;;;;;;;;;;5111373;28;20505;-45
2023/03/08 08:43:17;;;;;;;3.45;2.33;;;;;;;;;;5111241;28;20106;-45
2023/03/08 08:45:44;;;;;;;2.53;2.22;;;;;;;;;;5110763;28;20024;-44
2023/03/08 08:48:10;;;;;;;2.90;2.05;;;;;;;;;;5111024;28;20080;-45
2023/03/08 08:50:37;;;;;;;3.20;2.30;;;;;;;;;;5111364;28;20042;-45
2023/03/08 08:53:04;;;;;;;3.03;2.20;;;;;;;;;;5110755;28;20020;-45
2023/03/08 08:55:29;;;;;;;4.05;2.67;;;;;;;;;;5110972;28;20020;-43
2023/03/08 08:57:56;;;;;;;5.45;2.22;;;;;;;;;;5110857;28;20690;-45
2023/03/08 09:00:22;;;;;;;3.22;2.00;;;;;;;;;;5109861;28;20027;-45
2023/03/08 09:02:48;;;;;;;2.50;1.90;;;;;;;;;;5109373;28;20077;-46
2023/03/08 09:05:14;;;;;;;4.13;2.25;;;;;;;;;;5109811;28;20475;-45
2023/03/08 09:07:40;;;;;;;3.10;2.20;;;;;;;;;;5104966;28;20036;-44
2023/03/08 09:10:06;;;;;;;2.47;1.85;;;;;;;;;;5097292;28;20028;-44
2023/03/08 09:12:33;;;;;;;3.78;2.17;;;;;;;;;;5108079;28;20032;-45
2023/03/08 09:14:59;;;;;;;3.20;2.05;;;;;;;;;;5105891;28;20138;-44
2023/03/08 09:17:25;;;;;;;2.60;1.90;;;;;;;;;;5110760;28;20039;-45
2023/03/08 09:19:51;;;;;;;2.90;2.00;;;;;;;;;;5110736;28;20026;-45
2023/03/08 09:22:17;;;;;;;4.95;2.22;;;;;;;;;;5108444;28;20402;-45
2023/03/08 09:24:46;;;;;;;5.78;2.83;;;;;;;;;;5109082;28;20565;-44
2023/03/08 09:27:13;;;;;;;5.72;2.70;;;;;;;;;;5108719;28;20031;-44
2023/03/08 09:29:38;;;;;;;2.85;1.92;;;;;;;;;;5109326;28;20023;-44
2023/03/08 09:32:05;;;;;;;6.95;2.58;;;;;;;;;;5108683;28;20038;-45
2023/03/08 09:34:31;;;;;;;4.10;2.20;;;;;;;;;;5108928;28;20521;-44
2023/03/08 09:36:57;;;;;;;4.60;2.45;;;;;;;;;;5109619;28;20099;-44
2023/03/08 09:39:23;;;;;;;3.38;2.28;;;;;;;;;;5108873;28;20028;-46
2023/03/08 09:41:50;;;;;;;3.47;2.33;;;;;;;;;;5108725;28;20089;-46
2023/03/08 09:44:26;;;;;;;4.20;2.55;;;;;;;;;;5109086;28;20027;-44
2023/03/08 09:46:52;;;;;;;2.67;1.98;;;;;;;;;;5108909;28;20478;-45
2023/03/08 09:49:21;;;;;;;3.22;2.13;;;;;;;;;;5108879;28;20022;-45
2023/03/08 09:51:50;;;;;;;3.20;2.33;;;;;;;;;;5109485;28;20058;-44
2023/03/08 09:54:21;;;;;;;3.72;2.13;;;;;;;;;;5089901;28;20023;-47
2023/03/08 09:56:51;;;;;;;3.85;2.40;;;;;;;;;;5102839;28;20028;-45
2023/03/08 09:59:26;;;;;;;5.78;2.15;;;;;;;;;;5103238;28;20569;-45
2023/03/08 10:02:11;;;;;;;5.25;2.17;;;;;;;;;;5114678;27;20088;-47
2023/03/08 10:04:52;;;;;;;3.67;2.15;;;;;;;;;;5111572;27;20024;-45
2023/03/08 10:07:27;;;;;;;3.83;2.30;;;;;;;;;;5109241;28;20035;-45
2023/03/08 10:10:06;;;;;;;4.57;2.17;;;;;;;;;;5096049;28;20451;-45
2023/03/08 10:12:35;;;;;;;3.20;2.10;;;;;;;;;;5109159;28;20024;-44
2023/03/08 10:15:08;;;;;;;3.60;2.03;;;;;;;;;;5109387;28;20040;-45
2023/03/08 10:17:41;;;;;;;4.97;2.50;;;;;;;;;;5109225;28;20085;-45
2023/03/08 10:20:17;;;;;;;3.83;2.22;;;;;;;;;;5108370;28;20110;-45
2023/03/08 10:22:46;;;;;;;3.30;2.05;;;;;;;;;;5090279;28;20567;-46
2023/03/08 10:25:22;;;;;;;2.78;2.22;;;;;;;;;;5107820;28;20027;-45
2023/03/08 10:27:50;;;;;;;3.90;2.40;;;;;;;;;;5109182;28;20027;-45
2023/03/08 10:30:18;;;;;;;3.30;2.08;;;;;;;;;;5108406;28;20465;-45
2023/03/08 10:32:47;;;;;;;3.50;2.20;;;;;;;;;;5108540;28;20433;-44
2023/03/08 10:35:13;;;;;;;3.00;1.90;;;;;;;;;;5109002;28;20567;-45
2023/03/08 10:37:39;;;;;;;2.53;1.70;;;;;;;;;;5108997;28;20036;-45
2023/03/08 10:40:07;;;;;;;3.10;1.67;;;;;;;;;;5106312;28;20315;-45
2023/03/08 10:42:34;;;;;;;3.72;2.08;;;;;;;;;;5107518;28;20023;-45
2023/03/08 10:45:13;;;;;;;4.38;2.10;;;;;;;;;;5108728;28;20031;-45
2023/03/08 10:47:40;;;;;;;4.13;1.98;;;;;;;;;;5108804;28;20047;-45
2023/03/08 10:50:09;;;;;;;4.13;2.03;;;;;;;;;;5109183;28;20062;-46
2023/03/08 10:52:35;;;;;;;2.92;1.80;;;;;;;;;;5108764;28;20073;-46
2023/03/08 10:55:05;;;;;;;3.45;1.40;;;;;;;;;;5108824;28;20096;-44
2023/03/08 10:57:32;;;;;;;2.65;1.60;;;;;;;;;;5120989;27;20039;-45
2023/03/08 11:00:11;;;;;;;3.97;1.83;;;;;;;;;;5129215;27;20023;-45
2023/03/08 11:02:37;;;;;;;2.20;1.63;;;;;;;;;;5129410;27;20509;-44
2023/03/08 11:05:16;;;;;;;3.30;2.25;;;;;;;;;;5129164;27;20105;-45
2023/03/08 11:07:49;;;;;;;2.42;1.63;;;;;;;;;;5108823;28;20028;-45
2023/03/08 11:10:17;;;;;;;3.85;2.10;;;;;;;;;;5103431;28;20261;-45
2023/03/08 11:12:43;;;;;;;3.08;2.05;;;;;;;;;;5106263;28;20549;-45
2023/03/08 11:15:13;;;;;;;3.00;1.90;;;;;;;;;;5108623;28;20053;-46
2023/03/08 11:17:41;;;;;;;3.17;2.10;;;;;;;;;;5108848;28;20027;-45
2023/03/08 11:20:18;;;;;;;3.25;1.92;;;;;;;;;;5106757;28;20470;-47
2023/03/08 11:22:45;;;;;;;3.38;2.00;;;;;;;;;;5108873;28;20371;-44
2023/03/08 11:25:18;;;;;;;3.03;1.75;;;;;;;;;;5107132;28;20051;-45
2023/03/08 11:28:03;;;;;;;2.50;1.88;;;;;;;;;;5106114;28;20417;-52
2023/03/08 11:30:28;;;;;;;;;;;;;;;;;;5108783;28;20143;-46
2023/03/08 11:33:01;;;;;;;4.35;1.80;;;;;;;;;;5108303;28;20381;-45
2023/03/08 11:35:32;;;;;;;2.58;1.70;;;;;;;;;;5108453;28;20057;-45
2023/03/08 11:38:02;;;;;;;2.75;1.40;;;;;;;;;;5107872;28;20035;-47
2023/03/08 11:40:31;;;;;;;5.15;1.95;;;;;;;;;;5108320;28;20034;-45
2023/03/08 11:42:57;;;;;;;2.47;1.35;;;;;;;;;;5104432;28;20527;-46
2023/03/08 11:45:23;;;;;;;1.33;1.10;;;;;;;;;;5110635;28;20039;-45
2023/03/08 11:48:08;;;;;;;1.55;0.90;;;;;;;;;;5113220;28;20040;-46
2023/03/08 11:50:54;;;;;;;1.67;1.20;;;;;;;;;;5113490;28;20115;-48
2023/03/08 11:53:23;;;;;;;1.70;1.25;;;;;;;;;;5112931;28;20066;-45
2023/03/08 11:55:55;;;;;;;2.35;1.05;;;;;;;;;;5112993;28;20118;-46
2023/03/08 11:58:24;;;;;;;2.60;1.40;;;;;;;;;;5113356;28;20023;-45
2023/03/08 12:00:52;;;;;;;2.03;1.30;;;;;;;;;;5111544;28;20508;-46
2023/03/08 12:03:24;;;;;;;2.13;1.10;;;;;;;;;;5112702;28;20023;-46
2023/03/08 12:05:56;;;;;;;2.30;1.35;;;;;;;;;;5109614;28;20036;-45
2023/03/08 12:08:27;;;;;;;3.25;1.10;;;;;;;;;;5112914;28;20049;-46
2023/03/08 12:10:56;;;;;;;2.85;1.23;;;;;;;;;;5102422;28;20032;-45
2023/03/08 12:13:32;;;;;;;1.83;1.15;;;;;;;;;;5101891;28;20066;-45
2023/03/08 12:16:13;;;;;;;2.55;1.30;;;;;;;;;;5092484;28;20081;-45
2023/03/08 12:18:42;;;;;;;2.20;1.20;;;;;;;;;;5091132;28;21071;-45
2023/03/08 12:21:13;;;;;;;2.63;1.40;;;;;;;;;;5103782;28;20086;-46
2023/03/08 12:23:41;;;;;;;1.80;1.45;;;;;;;;;;5110936;28;20023;-45
2023/03/08 12:26:19;;;;;;;1.73;1.23;;;;;;;;;;5109901;28;20024;-45
2023/03/08 12:28:52;;;;;;;1.95;1.27;;;;;;;;;;5110853;28;20024;-45
2023/03/08 12:31:33;;;;;;;2.13;1.17;;;;;;;;;;5109119;28;20015;-45
2023/03/08 12:33:59;;;;;;;3.10;1.27;;;;;;;;;;5110241;28;20026;-45
2023/03/08 12:36:42;;;;;;;4.35;1.45;;;;;;;;;;5109476;28;20028;-45
2023/03/08 12:39:09;;;;;;;3.88;1.70;;;;;;;;;;5109783;28;20059;-49
2023/03/08 12:41:35;;;;;;;1.88;1.38;;;;;;;;;;5092233;28;20037;-47
2023/03/08 12:44:03;;;;;;;4.47;1.67;;;;;;;;;;5110434;28;20025;-46
2023/03/08 12:46:44;;;;;;;2.55;1.20;;;;;;;;;;5110234;28;20031;-47
2023/03/08 12:49:25;;;;;;;2.47;1.40;;;;;;;;;;5110532;28;20023;-44
2023/03/08 12:52:02;;;;;;;2.42;1.45;;;;;;;;;;5109591;28;20070;-45
2023/03/08 12:54:30;;;;;;;1.73;1.30;;;;;;;;;;5109500;28;20047;-45
2023/03/08 12:56:56;;;;;;;4.47;1.50;;;;;;;;;;5107466;28;20030;-45
2023/03/08 12:59:28;;;;;;;1.60;1.40;;;;;;;;;;5109950;28;20027;-45
2023/03/08 13:01:54;;;;;;;1.95;1.27;;;;;;;;;;5110300;28;20026;-47
2023/03/08 13:04:29;;;;;;;2.38;1.60;;;;;;;;;;5108814;28;20466;-45
2023/03/08 13:06:55;;;;;;;3.85;1.60;;;;;;;;;;5109776;28;20030;-45
2023/03/08 13:09:30;;;;;;;2.47;1.40;;;;;;;;;;5110264;28;20046;-48
2023/03/08 13:12:16;;;;;;;1.92;1.42;;;;;;;;;;5086811;28;20427;-45
2023/03/08 13:14:46;;;;;;;1.73;1.33;;;;;;;;;;5114936;27;20043;-48
2023/03/08 13:17:34;;;;;;;2.00;1.58;;;;;;;;;;5137211;27;20041;-48
2023/03/08 13:20:16;;;;;;;3.22;1.60;;;;;;;;;;5130214;27;20027;-45
2023/03/08 13:22:53;;;;;;;2.72;1.73;;;;;;;;;;5127719;27;20386;-44
2023/03/08 13:25:28;;;;;;;3.63;1.75;;;;;;;;;;5129007;27;20139;-47
2023/03/08 13:28:09;;;;;;;2.85;1.80;;;;;;;;;;5130092;27;20455;-45
2023/03/08 13:30:45;;;;;;;1.67;1.50;;;;;;;;;;5117401;27;20039;-49
2023/03/08 13:33:22;;;;;;;1.73;1.63;;;;;;;;;;5129815;27;20529;-47
2023/03/08 13:36:00;;;;;;;3.60;2.00;;;;;;;;;;5129976;27;20027;-46
2023/03/08 13:38:27;;;;;;;2.33;1.55;;;;;;;;;;5127517;27;20027;-46
2023/03/08 13:40:54;;;;;;;4.78;1.60;;;;;;;;;;5128863;27;20031;-48
2023/03/08 13:43:22;;;;;;;2.17;1.63;;;;;;;;;;5126824;27;20049;-44
2023/03/08 13:45:49;;;;;;;2.42;1.83;;;;;;;;;;5128694;27;20109;-46
2023/03/08 13:48:15;;;;;;;3.05;1.70;;;;;;;;;;5130162;27;20019;-44
2023/03/08 13:50:45;;;;;;;3.25;2.15;;;;;;;;;;5129731;27;20106;-47
2023/03/08 13:53:16;;;;;;;3.67;2.00;;;;;;;;;;5129792;27;20020;-45
2023/03/08 13:55:44;;;;;;;2.30;1.95;;;;;;;;;;5129773;27;20029;-47
2023/03/08 13:58:25;;;;;;;5.63;2.28;;;;;;;;;;5128120;27;20055;-45
2023/03/08 14:01:17;;;;;;;3.10;2.10;;;;;;;;;;5124319;27;20035;-45
2023/03/08 14:03:44;;;;;;;3.20;2.05;;;;;;;;;;5122711;27;20114;-48
2023/03/08 14:06:16;;;;;;;3.70;2.25;;;;;;;;;;5131375;27;20030;-47
2023/03/08 14:08:42;;;;;;;2.67;2.08;;;;;;;;;;5132490;27;20832;-46
2023/03/08 14:11:14;;;;;;;5.38;3.25;;;;;;;;;;5129327;27;20088;-46
2023/03/08 14:13:41;;;;;;;4.10;2.88;;;;;;;;;;5113567;27;20075;-46
2023/03/08 14:16:08;;;;;;;6.03;3.15;;;;;;;;;;5091765;28;20024;-47
2023/03/08 14:18:36;;;;;;;4.22;2.80;;;;;;;;;;5104133;28;20145;-48
2023/03/08 14:21:05;;;;;;;6.35;2.60;;;;;;;;;;5104038;28;20031;-47
2023/03/08 14:23:33;;;;;;;3.78;2.60;;;;;;;;;;5098981;28;20165;-46
2023/03/08 14:25:59;;;;;;;3.70;2.33;;;;;;;;;;5104849;28;20407;-46
2023/03/08 14:28:39;;;;;;;3.63;2.60;;;;;;;;;;5100032;28;20107;-45
2023/03/08 14:31:23;;;;;;;3.08;2.22;;;;;;;;;;5104372;28;20482;-46
2023/03/08 14:33:49;;;;;;;;;;;;;;;;;;5104992;28;20030;-44
2023/03/08 14:36:15;;;;;;;7.95;2.90;;;;;;;;;;5087978;28;19912;-44
2023/03/08 14:38:41;;;;;;;5.28;3.15;;;;;;;;;;5092730;28;20023;-45
2023/03/08 14:41:10;;;;;;;3.17;2.50;;;;;;;;;;5105898;28;20669;-46
2023/03/08 14:43:36;;;;;;;2.72;2.33;;;;;;;;;;5107012;28;20394;-48
2023/03/08 14:46:04;;;;;;;3.92;2.65;;;;;;;;;;5107107;28;20785;-44
2023/03/08 14:48:32;;;;;;;4.35;2.90;;;;;;;;;;5104046;28;20019;-46
2023/03/08 14:50:59;;;;;;;5.18;3.80;;;;;;;;;;5099508;28;20131;-45
2023/03/08 14:53:30;;;;;;;5.10;3.38;;;;;;;;;;5107310;27;20073;-45
2023/03/08 14:55:57;;;;;;;5.25;3.05;;;;;;;;;;5106195;28;20020;-46
2023/03/08 14:58:27;;;;;;;4.60;2.55;;;;;;;;;;5106430;28;20031;-46
2023/03/08 15:00:54;;;;;;;5.65;2.88;;;;;;;;;;5106414;28;20059;-47
2023/03/08 15:03:20;;;;;;;4.03;2.70;;;;;;;;;;5107716;28;20032;-45
2023/03/08 15:05:46;;;;;;;5.95;3.08;;;;;;;;;;5105831;28;20532;-45
2023/03/08 15:08:14;;;;;;;5.35;3.25;;;;;;;;;;5105517;28;20370;-45
2023/03/08 15:10:40;;;;;;;3.70;2.92;;;;;;;;;;5091245;28;20063;-45
2023/03/08 15:13:10;;;;;;;3.78;3.05;;;;;;;;;;5090153;28;20092;-45
2023/03/08 15:15:36;;;;;;;4.22;2.88;;;;;;;;;;5099034;28;20047;-44
2023/03/08 15:18:02;;;;;;;3.60;2.30;;;;;;;;;;5098965;28;20028;-43
2023/03/08 15:20:28;;;;;;;4.47;3.10;;;;;;;;;;5094033;28;20027;-43
2023/03/08 15:22:56;;;;;;;4.15;2.30;;;;;;;;;;5116285;27;20059;-43
2023/03/08 15:25:25;;;;;;;4.25;2.60;;;;;;;;;;5107794;28;20409;-44
2023/03/08 15:27:51;;;;;;;3.60;2.20;;;;;;;;;;5106720;27;20107;-44
2023/03/08 15:30:22;;;;;;;3.47;2.30;;;;;;;;;;5073396;28;20077;-42
2023/03/08 15:32:48;;;;;;;4.68;2.45;;;;;;;;;;5101368;28;20031;-44
2023/03/08 15:35:15;;;;;;;2.97;2.20;;;;;;;;;;5107895;28;20408;-46
2023/03/08 15:37:41;;;;;;;4.15;2.40;;;;;;;;;;5110420;28;20027;-43
2023/03/08 15:40:12;;;;;;;4.00;2.22;;;;;;;;;;5110221;28;20023;-47
2023/03/08 15:42:38;;;;;;;3.50;2.30;;;;;;;;;;5107374;28;20039;-43
2023/03/08 15:45:04;;;;;;;4.13;2.63;;;;;;;;;;5109371;28;20035;-45
2023/03/08 15:47:30;;;;;;;3.20;2.10;;;;;;;;;;5111510;27;20028;-44
2023/03/08 15:49:56;;;;;;;3.15;2.20;;;;;;;;;;5109999;27;20020;-47
2023/03/08 15:52:22;;;;;;;2.70;1.88;;;;;;;;;;5111946;27;20084;-44
2023/03/08 15:54:49;;;;;;;4.60;2.60;;;;;;;;;;5109850;27;20031;-44
2023/03/08 15:57:15;;;;;;;3.80;3.03;;;;;;;;;;5108864;28;20022;-44
2023/03/08 15:59:42;;;;;;;5.93;3.33;;;;;;;;;;5106344;28;20032;-44
2023/03/08 16:02:18;;;;;;;7.35;3.05;;;;;;;;;;5108278;27;20043;-44
2023/03/08 16:04:46;;;;;;;11.38;4.63;;;;;;;;;;5107262;28;20092;-44
2023/03/08 16:07:16;;;;;;;5.10;2.80;;;;;;;;;;5105537;28;20024;-43
2023/03/08 16:09:42;;;;;;;5.22;2.92;;;;;;;;;;5102379;28;20032;-44
2023/03/08 16:12:08;;;;;;;3.95;3.05;;;;;;;;;;5105975;28;20058;-44
2023/03/08 16:14:35;;;;;;;6.05;2.90;;;;;;;;;;5103929;27;20111;-44
2023/03/08 16:17:02;;;;;;;5.05;2.67;;;;;;;;;;5099222;28;20497;-44
2023/03/08 16:19:32;;;;;;;5.97;3.85;;;;;;;;;;5090746;27;20380;-45
2023/03/08 16:21:58;;;;;;;4.93;3.03;;;;;;;;;;5110409;28;20032;-45
2023/03/08 16:24:25;;;;;;;3.67;2.65;;;;;;;;;;5105744;27;20028;-43
2023/03/08 16:26:51;;;;;;;3.92;2.50;;;;;;;;;;5089979;28;20038;-43
2023/03/08 16:29:17;;;;;;;4.28;2.90;;;;;;;;;;5094040;28;20052;-44
2023/03/08 16:31:44;;;;;;;4.57;3.20;;;;;;;;;;5109149;28;20035;-44
2023/03/08 16:34:11;;;;;;;4.90;2.72;;;;;;;;;;5109445;28;20281;-44
2023/03/08 16:36:37;;;;;;;4.78;2.70;;;;;;;;;;5097338;28;20096;-46
2023/03/08 16:39:07;;;;;;;5.70;2.85;;;;;;;;;;5112210;27;20683;-47
2023/03/08 16:41:36;;;;;;;5.55;3.28;;;;;;;;;;5130155;27;20019;-43
2023/03/08 16:44:03;;;;;;;5.10;2.97;;;;;;;;;;5130539;27;20028;-43
2023/03/08 16:46:29;;;;;;;5.15;3.10;;;;;;;;;;5130156;27;20518;-46
2023/03/08 16:48:55;;;;;;;5.40;2.92;;;;;;;;;;5118831;27;20047;-44
2023/03/08 16:51:23;;;;;;;7.20;3.10;;;;;;;;;;5109397;28;20024;-41
2023/03/08 16:53:49;;;;;;;4.95;3.30;;;;;;;;;;5107205;27;20031;-44
2023/03/08 16:56:22;;;;;;;6.35;3.30;;;;;;;;;;5097988;27;20085;-45
2023/03/08 16:58:49;;;;;;;6.05;3.13;;;;;;;;;;5089824;28;20040;-42
2023/03/08 17:01:16;;;;;;;5.28;3.17;;;;;;;;;;5089907;28;20024;-44
2023/03/08 17:03:42;;;;;;;9.13;3.45;;;;;;;;;;5125005;27;20076;-46
2023/03/08 17:06:13;;;;;;;7.15;3.55;;;;;;;;;;5105268;28;20490;-44
2023/03/08 17:08:39;;;;;;;6.18;3.70;;;;;;;;;;5106434;28;20122;-44
2023/03/08 17:11:06;;;;;;;5.50;3.45;;;;;;;;;;5106529;28;20142;-47
2023/03/08 17:13:32;;;;;;;5.90;3.40;;;;;;;;;;5108597;27;20573;-46
2023/03/08 17:15:58;;;;;;;5.65;3.58;;;;;;;;;;5124210;27;20505;-46
2023/03/08 17:18:25;;;;;;;4.28;3.35;;;;;;;;;;5124216;27;20035;-45
2023/03/08 17:20:52;;;;;;;6.13;3.60;;;;;;;;;;5126988;27;20537;-45
2023/03/08 17:23:19;;;;;;;12.65;7.10;;;;;;;;;;5108484;27;20043;-46
2023/03/08 17:25:46;;;;;;;8.90;4.85;;;;;;;;;;5127368;27;20031;-46
2023/03/08 17:28:14;;;;;;;6.93;4.22;;;;;;;;;;5127647;27;20034;-46
2023/03/08 17:30:41;;;;;;;5.32;3.65;;;;;;;;;;5106792;27;20023;-46
2023/03/08 17:33:08;;;;;;;8.27;3.80;;;;;;;;;;5126793;27;20031;-46
2023/03/08 17:35:37;;;;;;;7.13;4.32;;;;;;;;;;5126556;27;20114;-46
2023/03/08 17:38:03;;;;;;;7.57;3.80;;;;;;;;;;5126770;27;20031;-49
2023/03/08 17:40:29;;;;;;;5.85;3.58;;;;;;;;;;5126282;27;20404;-45
2023/03/08 17:42:58;;;;;;;7.20;4.32;;;;;;;;;;5125373;27;20027;-45
2023/03/08 17:45:27;;;;;;;7.40;4.38;;;;;;;;;;5125819;27;20120;-47
2023/03/08 17:47:59;;;;;;;8.23;4.45;;;;;;;;;;5126899;27;20034;-46
2023/03/08 17:50:28;;;;;;;10.50;5.10;;;;;;;;;;5126520;27;20110;-49
2023/03/08 17:52:54;;;;;;;10.38;5.32;;;;;;;;;;5126990;27;20502;-46
2023/03/08 17:55:21;;;;;;;7.97;4.97;;;;;;;;;;5127624;27;20027;-48
2023/03/08 17:57:47;;;;;;;9.30;5.82;;;;;;;;;;5127522;27;20030;-47
2023/03/08 18:00:13;;;;;;;8.85;5.45;;;;;;;;;;5126891;27;20098;-46
2023/03/08 18:02:39;;;;;;;10.40;5.57;;;;;;;;;;5127193;27;20035;-47
2023/03/08 18:05:05;;;;;;;9.50;4.90;;;;;;;;;;5127403;27;20023;-47
2023/03/08 18:07:32;;;;;;;9.13;5.05;;;;;;;;;;5127510;27;20034;-46
2023/03/08 18:10:00;;;;;;;8.48;5.15;;;;;;;;;;5125874;27;20027;-49
2023/03/08 18:12:26;;;;;;;8.98;5.70;;;;;;;;;;5126275;27;20043;-46
2023/03/08 18:14:52;;;;;;;7.90;5.03;;;;;;;;;;5125175;27;20027;-46
2023/03/08 18:17:19;;;;;;;9.90;5.85;;;;;;;;;;5127120;27;20451;-49
2023/03/08 18:19:45;;;;;;;8.20;4.63;;;;;;;;;;5126200;27;20055;-46
2023/03/08 18:22:11;;;;;;;8.07;5.72;;;;;;;;;;5127383;27;20031;-47
2023/03/08 18:24:38;;;;;;;9.25;5.80;;;;;;;;;;5127154;27;20111;-45
2023/03/08 18:27:04;;;;;;;7.43;4.95;;;;;;;;;;5126573;27;20067;-47
2023/03/08 18:29:31;;;;;;;9.27;5.90;;;;;;;;;;5126474;27;20027;-46
2023/03/08 18:31:58;;;;;;;11.98;6.53;;;;;;;;;;5126852;27;20023;-45
2023/03/08 18:34:24;;;;;;;9.80;6.22;;;;;;;;;;5121581;27;20031;-45
2023/03/08 18:36:50;;;;;;;10.73;6.93;;;;;;;;;;5125329;27;20038;-46
2023/03/08 18:39:16;;;;;;;8.00;5.40;;;;;;;;;;5126658;27;20027;-46
2023/03/08 18:41:42;;;;;;;6.82;5.20;;;;;;;;;;5126997;27;20470;-46
2023/03/08 18:44:11;;;;;;;9.25;5.35;;;;;;;;;;5126392;27;20574;-46
2023/03/08 18:46:38;;;;;;;11.52;6.63;;;;;;;;;;5124947;27;20498;-46
2023/03/08 18:49:10;;;;;;;8.35;5.47;;;;;;;;;;5123094;27;20050;-46
2023/03/08 18:51:37;;;;;;;8.98;5.80;;;;;;;;;;5122014;27;20035;-47
2023/03/08 18:54:03;;;;;;;8.98;5.10;;;;;;;;;;5123251;27;20035;-45
2023/03/08 18:56:30;;;;;;;9.50;5.50;;;;;;;;;;5120964;27;20480;-46
2023/03/08 18:58:57;;;;;;;10.32;5.72;;;;;;;;;;5124762;27;20209;-46
2023/03/08 19:01:23;;;;;;;12.38;6.82;;;;;;;;;;5125792;27;20436;-46
2023/03/08 19:03:49;;;;;;;10.90;6.53;;;;;;;;;;5124510;27;20488;-46
2023/03/08 19:06:16;;;;;;;9.90;6.88;;;;;;;;;;5124896;27;20538;-46
2023/03/08 19:08:42;;;;;;;10.43;6.85;;;;;;;;;;5126986;27;20105;-45
2023/03/08 19:11:19;;;;;;;9.43;6.20;;;;;;;;;;5124826;27;20023;-45
2023/03/08 19:13:46;;;;;;;9.55;5.85;;;;;;;;;;5119993;27;20412;-48
2023/03/08 19:16:20;;;;;;;9.57;6.07;;;;;;;;;;5099127;28;20030;-46
2023/03/08 19:18:47;;;;;;;11.82;6.43;;;;;;;;;;5103440;28;20027;-45
2023/03/08 19:21:17;;;;;;;10.80;6.47;;;;;;;;;;5091268;28;20103;-46
2023/03/08 19:23:43;;;;;;;11.10;6.35;;;;;;;;;;5103388;28;20031;-47
2023/03/08 19:28:59;;;;;;;11.75;6.63;;;;;;;;;;5094423;28;20571;-47
2023/03/08 19:31:26;;;;;;;9.13;6.15;;;;;;;;;;5099937;28;20068;-45
2023/03/08 19:33:52;;;;;;;10.82;6.07;;;;;;;;;;5095675;28;20028;-45
2023/03/08 19:36:18;;;;;;;8.63;5.45;;;;;;;;;;5093154;28;20028;-46
2023/03/08 19:38:44;;;;;;;8.10;5.30;;;;;;;;;;5110565;28;20023;-46
2023/03/08 19:41:10;;;;;;;8.57;5.28;;;;;;;;;;5095136;28;20033;-46
2023/03/08 19:43:36;;;;;;;12.40;5.50;;;;;;;;;;5098025;28;20039;-45
2023/03/08 19:46:02;;;;;;;8.48;5.35;;;;;;;;;;5092718;28;20021;-46
2023/03/08 19:48:29;;;;;;;9.30;5.13;;;;;;;;;;5107297;28;20038;-46
2023/03/08 19:50:55;;;;;;;9.82;5.90;;;;;;;;;;5086022;28;20488;-48
2023/03/08 19:53:21;;;;;;;11.75;6.28;;;;;;;;;;5092219;28;20047;-47
2023/03/08 19:55:49;;;;;;;10.73;6.22;;;;;;;;;;5111784;27;20494;-47